Time;durP1;ratioP1;P1;durP2;ratioP2;P2;SDS_P1;SDS_P2;PMS_P1;PMS_P2;Temp;Humidity;BMP_temperature;BMP_pressure;BME280_temperature;BME280_humidity;BME280_pressure;Samples;Min_cycle;Max_cycle;Signal;HPM_P1;HPM_P2
2022/04/24 00:01:24;;;;;;;5.50;5.00;;;;;;;10.83;68.14;97390.81;8172705;28;20059;-70
2022/04/24 00:05:26;;;;;;;5.40;4.53;;;;;;;10.81;68.04;97381.41;8176976;28;20050;-70
2022/04/24 00:09:28;;;;;;;7.60;4.72;;;;;;;10.81;67.86;97389.19;8197117;28;20053;-71
2022/04/24 00:13:37;;;;;;;5.20;4.55;;;;;;;10.82;68.02;97386.53;8190716;28;20433;-70
2022/04/24 00:17:38;;;;;;;5.75;4.68;;;;;;;10.88;67.65;97385.44;8189827;28;20071;-70
2022/04/24 00:21:40;;;;;;;4.65;4.25;;;;;;;10.92;67.52;97374.03;8176335;28;20470;-70
2022/04/24 00:25:41;;;;;;;5.35;4.82;;;;;;;10.97;67.88;97368.69;8192149;28;20057;-70
2022/04/24 00:29:43;;;;;;;4.97;4.40;;;;;;;11.05;66.99;97367.47;8191707;28;20846;-70
2022/04/24 00:33:44;;;;;;;5.00;4.13;;;;;;;11.13;66.10;97383.63;8185238;28;20048;-70
2022/04/24 00:37:46;;;;;;;5.35;4.07;;;;;;;11.15;66.61;97383.56;8207594;28;20047;-70
2022/04/24 00:41:49;;;;;;;4.45;4.05;;;;;;;11.20;65.99;97392.84;8206210;28;20130;-70
2022/04/24 00:46:10;;;;;;;4.78;4.20;;;;;;;11.24;66.19;97403.97;8199734;28;20051;-71
2022/04/24 00:50:12;;;;;;;4.88;4.43;;;;;;;11.25;67.15;97438.56;8200173;28;20102;-70
2022/04/24 00:54:13;;;;;;;4.05;3.65;;;;;;;11.15;68.60;97453.69;8188641;28;20050;-70
2022/04/24 00:58:15;;;;;;;5.63;4.10;;;;;;;11.12;67.88;97428.66;8208380;28;20126;-70
2022/04/24 01:02:16;;;;;;;5.82;3.70;;;;;;;11.10;68.54;97414.03;8202933;28;20650;-70
2022/04/24 01:06:18;;;;;;;4.15;3.67;;;;;;;11.13;68.43;97422.56;8207182;28;20112;-70
2022/04/24 01:10:19;;;;;;;5.97;4.00;;;;;;;11.06;69.09;97449.66;8194550;28;20133;-70
2022/04/24 01:14:25;;;;;;;4.53;4.13;;;;;;;11.05;69.70;97449.72;8202650;28;20644;-70
2022/04/24 01:18:26;;;;;;;4.07;3.58;;;;;;;11.06;69.59;97438.44;8204852;28;20459;-70
2022/04/24 01:22:28;;;;;;;4.20;3.80;;;;;;;11.09;68.46;97433.97;8212377;28;20050;-70
2022/04/24 01:26:30;;;;;;;4.63;3.72;;;;;;;11.13;68.61;97451.16;8177667;28;20054;-70
2022/04/24 01:30:31;;;;;;;3.95;3.55;;;;;;;11.12;69.58;97446.81;8208583;28;20673;-70
2022/04/24 01:34:32;;;;;;;4.20;3.80;;;;;;;11.10;70.13;97447.78;8216450;28;20082;-70
2022/04/24 01:38:34;;;;;;;4.10;3.65;;;;;;;11.12;70.85;97454.63;8207358;28;20495;-70
2022/04/24 01:42:35;;;;;;;4.28;3.70;;;;;;;11.07;71.87;97461.75;8224862;28;20074;-70
2022/04/24 01:46:37;;;;;;;4.03;3.45;;;;;;;11.03;72.13;97464.53;8219110;28;20054;-70
2022/04/24 01:50:38;;;;;;;5.95;3.83;;;;;;;11.01;72.06;97462.00;8210928;28;20050;-70
2022/04/24 01:54:40;;;;;;;4.28;3.90;;;;;;;11.01;72.61;97469.78;8220722;28;20049;-71
2022/04/24 01:58:42;;;;;;;7.43;3.92;;;;;;;10.99;72.88;97460.34;8223897;28;20105;-70
2022/04/24 02:02:45;;;;;;;4.27;3.90;;;;;;;11.02;73.18;97460.22;8203070;28;20051;-70
2022/04/24 02:06:46;;;;;;;3.83;3.53;;;;;;;11.02;73.78;97462.84;8233683;28;20046;-70
2022/04/24 02:10:49;;;;;;;4.45;4.03;;;;;;;10.97;73.95;97465.59;8214213;28;20081;-70
2022/04/24 02:14:51;;;;;;;4.88;3.92;;;;;;;10.99;73.46;97466.41;8210921;28;20038;-70
2022/04/24 02:18:52;;;;;;;6.18;4.00;;;;;;;11.04;73.07;97472.25;8218658;28;20054;-70
2022/04/24 02:22:55;;;;;;;6.25;3.97;;;;;;;11.09;72.55;97472.06;8218081;28;20460;-70
2022/04/24 02:26:57;;;;;;;5.07;4.05;;;;;;;11.11;71.92;97475.47;8224804;28;20115;-70
2022/04/24 02:30:59;;;;;;;4.03;3.60;;;;;;;11.15;70.96;97477.91;8216050;28;20051;-70
2022/04/24 02:35:00;;;;;;;4.35;3.95;;;;;;;11.19;69.59;97465.66;8204469;28;20510;-70
2022/04/24 02:39:02;;;;;;;3.93;3.63;;;;;;;11.24;68.64;97468.06;8226669;28;20174;-71
2022/04/24 02:43:03;;;;;;;3.65;3.35;;;;;;;11.28;68.05;97470.47;8234432;28;20038;-70
2022/04/24 02:47:05;;;;;;;3.85;3.50;;;;;;;11.31;67.94;97479.91;8225515;28;20059;-70
2022/04/24 02:51:07;;;;;;;4.30;3.90;;;;;;;11.30;68.02;97479.06;8229483;28;20066;-70
2022/04/24 02:55:08;;;;;;;3.87;3.50;;;;;;;11.30;68.96;97483.41;8234258;28;20062;-70
2022/04/24 02:59:11;;;;;;;8.15;5.22;;;;;;;11.31;69.09;97487.69;8218876;28;20423;-70
2022/04/24 03:03:13;;;;;;;4.85;4.28;;;;;;;11.30;69.04;97483.41;8223310;28;20053;-70
2022/04/24 03:07:14;;;;;;;5.53;4.38;;;;;;;11.32;68.15;97487.66;8230716;28;20057;-70
2022/04/24 03:11:15;;;;;;;4.28;3.88;;;;;;;11.34;68.71;97480.66;8217223;28;20843;-70
2022/04/24 03:15:17;;;;;;;4.00;3.70;;;;;;;11.35;68.12;97482.34;8212066;28;20043;-70
2022/04/24 03:19:18;;;;;;;3.95;3.65;;;;;;;11.35;67.34;97490.16;8220202;28;20054;-71
2022/04/24 03:23:20;;;;;;;4.25;3.85;;;;;;;11.37;67.75;97484.88;8227178;28;20042;-70
2022/04/24 03:27:21;;;;;;;4.72;3.67;;;;;;;11.38;67.14;97478.78;8230227;28;20053;-70
2022/04/24 03:31:24;;;;;;;4.18;3.88;;;;;;;11.38;67.05;97483.97;8206798;28;20050;-70
2022/04/24 03:35:26;;;;;;;3.70;3.47;;;;;;;11.35;67.34;97484.09;8207275;28;20085;-70
2022/04/24 03:39:27;;;;;;;4.20;3.80;;;;;;;11.35;67.37;97491.91;8204626;28;20047;-70
2022/04/24 03:43:29;;;;;;;4.25;3.83;;;;;;;11.34;67.64;97492.81;8211367;28;20153;-70
2022/04/24 03:47:30;;;;;;;4.33;3.93;;;;;;;11.36;68.52;97480.59;8213863;28;20150;-70
2022/04/24 03:51:32;;;;;;;4.28;3.97;;;;;;;11.35;68.91;97492.75;8213678;28;20685;-70
2022/04/24 03:55:33;;;;;;;5.32;4.22;;;;;;;11.33;69.90;97489.34;8226636;28;20042;-70
2022/04/24 03:59:35;;;;;;;5.00;4.57;;;;;;;11.29;71.60;97497.31;8230212;28;20546;-70
2022/04/24 04:03:37;;;;;;;6.00;4.70;;;;;;;11.27;72.59;97505.16;8227441;28;20055;-70
2022/04/24 04:07:39;;;;;;;4.88;4.40;;;;;;;11.21;73.86;97500.19;8221060;28;20591;-70
2022/04/24 04:11:40;;;;;;;4.82;4.43;;;;;;;11.19;74.63;97510.66;8210327;28;20141;-70
2022/04/24 04:15:42;;;;;;;5.65;5.15;;;;;;;11.15;74.94;97510.81;8210807;28;20672;-71
2022/04/24 04:19:43;;;;;;;5.70;4.90;;;;;;;11.16;75.44;97502.13;8227641;28;20074;-70
2022/04/24 04:23:45;;;;;;;5.70;4.97;;;;;;;11.14;76.03;97506.53;8226299;28;20683;-70
2022/04/24 04:27:47;;;;;;;5.70;4.67;;;;;;;11.14;76.32;97507.38;8228909;28;20337;-70
2022/04/24 04:31:48;;;;;;;4.13;3.78;;;;;;;11.09;77.12;97509.28;8228974;28;20078;-71
2022/04/24 04:35:50;;;;;;;5.22;4.72;;;;;;;11.10;76.59;97516.16;8222939;28;20059;-71
2022/04/24 04:39:51;;;;;;;4.40;4.00;;;;;;;11.11;76.95;97523.06;8226645;28;20553;-71
2022/04/24 04:43:53;;;;;;;4.87;4.47;;;;;;;11.10;77.43;97520.53;8228595;28;20351;-71
2022/04/24 04:47:54;;;;;;;5.38;3.85;;;;;;;11.08;77.49;97522.31;8203231;28;20061;-71
2022/04/24 04:51:56;;;;;;;4.13;3.58;;;;;;;11.10;77.83;97536.09;8225047;28;20131;-70
2022/04/24 04:55:57;;;;;;;3.80;3.50;;;;;;;11.11;76.61;97535.19;8225281;28;20122;-71
2022/04/24 04:59:59;;;;;;;5.85;3.47;;;;;;;11.09;77.09;97539.59;8229879;28;20054;-71
2022/04/24 05:04:01;;;;;;;3.42;3.15;;;;;;;11.07;77.49;97542.25;8215066;28;20460;-71
2022/04/24 05:08:02;;;;;;;3.47;3.17;;;;;;;11.05;77.72;97538.03;8225018;28;20134;-71
2022/04/24 05:12:04;;;;;;;3.20;2.90;;;;;;;11.07;77.99;97538.81;8216636;28;20049;-71
2022/04/24 05:16:06;;;;;;;2.97;2.65;;;;;;;11.04;77.65;97544.97;8225235;28;20495;-71
2022/04/24 05:20:13;;;;;;;2.97;2.77;;;;;;;11.02;78.00;97546.78;8228098;28;20060;-72
2022/04/24 05:24:14;;;;;;;3.40;2.85;;;;;;;11.02;78.13;97549.38;8226458;28;20078;-71
2022/04/24 05:28:16;;;;;;;2.60;2.40;;;;;;;11.05;78.42;97556.22;8215119;28;20049;-71
2022/04/24 05:32:17;;;;;;;2.22;1.98;;;;;;;11.07;78.11;97555.25;8205577;28;20057;-71
2022/04/24 05:36:19;;;;;;;4.07;2.23;;;;;;;11.09;77.54;97560.38;8211103;28;20131;-71
2022/04/24 05:40:20;;;;;;;2.20;2.00;;;;;;;11.09;78.09;97560.38;8206216;28;20051;-71
2022/04/24 05:44:22;;;;;;;5.07;1.98;;;;;;;11.08;78.04;97562.13;8206857;28;20376;-71
2022/04/24 05:48:23;;;;;;;1.73;1.63;;;;;;;11.10;78.14;97568.13;8208084;28;20055;-71
2022/04/24 05:52:27;;;;;;;1.60;1.50;;;;;;;11.08;78.63;97572.53;8211759;28;20439;-71
2022/04/24 05:56:29;;;;;;;1.88;1.52;;;;;;;11.07;78.00;97573.44;8211345;28;20055;-71
2022/04/24 06:00:30;;;;;;;2.13;1.80;;;;;;;11.07;78.14;97580.38;8208106;28;20129;-70
2022/04/24 06:04:31;;;;;;;1.80;1.40;;;;;;;11.12;77.84;97574.09;8193889;28;20093;-71
2022/04/24 06:08:33;;;;;;;2.60;1.20;;;;;;;11.13;77.83;97581.03;8225747;28;20039;-71
2022/04/24 06:12:54;;;;;;;0.80;0.80;;;;;;;11.14;78.18;97585.31;8214141;28;20130;-70
2022/04/24 06:16:55;;;;;;;1.77;1.20;;;;;;;11.12;77.92;97581.88;8207459;28;20053;-71
2022/04/24 06:20:57;;;;;;;1.00;0.90;;;;;;;11.12;78.36;97589.69;8213359;28;20122;-71
2022/04/24 06:24:58;;;;;;;1.38;0.98;;;;;;;11.13;79.20;97585.34;8228456;28;20065;-71
2022/04/24 06:28:59;;;;;;;1.55;1.05;;;;;;;11.12;79.29;97589.69;8228091;28;20069;-70
2022/04/24 06:33:01;;;;;;;2.55;1.00;;;;;;;11.12;79.31;97588.84;8218532;28;20518;-71
2022/04/24 06:37:03;;;;;;;2.03;1.17;;;;;;;11.10;80.29;97591.50;8230664;28;20467;-70
2022/04/24 06:41:04;;;;;;;4.10;1.20;;;;;;;11.10;79.55;97594.09;8232705;28;20038;-71
2022/04/24 06:45:06;;;;;;;1.20;1.10;;;;;;;11.04;80.04;97593.47;8226035;28;20074;-70
2022/04/24 06:49:07;;;;;;;2.17;1.30;;;;;;;11.02;80.21;97582.28;8217129;28;20051;-71
2022/04/24 06:53:14;;;;;;;3.13;1.00;;;;;;;11.03;80.75;97596.97;8223772;28;20315;-72
2022/04/24 06:57:15;;;;;;;1.27;0.93;;;;;;;11.02;81.58;97601.31;8184881;28;20049;-72
2022/04/24 07:01:19;;;;;;;2.65;0.80;;;;;;;11.09;80.72;97601.94;8219642;28;20129;-72
2022/04/24 07:05:23;;;;;;;0.93;0.75;;;;;;;11.12;81.80;97601.81;8181882;28;20093;-72
2022/04/24 07:09:25;;;;;;;1.13;0.98;;;;;;;11.12;82.26;97605.28;8229634;28;20074;-72
2022/04/24 07:13:26;;;;;;;1.60;1.00;;;;;;;11.22;81.74;97607.56;8209923;28;20042;-72
2022/04/24 07:17:28;;;;;;;2.15;1.15;;;;;;;11.22;82.42;97613.59;8204804;28;20138;-72
2022/04/24 07:21:29;;;;;;;1.90;0.93;;;;;;;11.25;82.42;97613.50;8209835;28;20055;-72
2022/04/24 07:25:37;;;;;;;0.80;0.80;;;;;;;11.19;81.85;97613.72;8192845;28;20450;-71
2022/04/24 07:29:39;;;;;;;0.70;0.70;;;;;;;11.18;81.70;97622.41;8196362;28;20061;-71
2022/04/24 07:33:40;;;;;;;3.30;1.83;;;;;;;11.16;81.96;97632.84;8206118;28;20146;-70
2022/04/24 07:37:42;;;;;;;1.20;0.70;;;;;;;11.15;81.68;97631.16;8196637;28;20073;-71
2022/04/24 07:41:44;;;;;;;1.45;1.27;;;;;;;11.14;82.09;97637.25;8205334;28;20074;-70
2022/04/24 07:45:47;;;;;;;2.17;0.63;;;;;;;11.15;81.91;97635.50;8207578;28;20050;-70
2022/04/24 07:49:48;;;;;;;1.80;0.90;;;;;;;11.22;81.15;97636.13;8192302;28;20058;-71
2022/04/24 07:53:50;;;;;;;0.70;0.70;;;;;;;11.27;81.42;97637.66;8195618;28;20419;-70
2022/04/24 07:57:57;;;;;;;1.80;0.90;;;;;;;11.27;81.67;97634.22;8188181;28;20046;-71
2022/04/24 08:01:59;;;;;;;1.48;0.80;;;;;;;11.22;82.26;97638.72;8210031;28;20154;-70
2022/04/24 08:06:00;;;;;;;0.77;0.77;;;;;;;11.26;82.03;97643.75;8211828;28;20039;-71
2022/04/24 08:10:02;;;;;;;2.53;0.70;;;;;;;11.28;82.14;97647.16;8214012;28;20101;-71
2022/04/24 08:14:03;;;;;;;0.50;0.50;;;;;;;11.26;82.03;97648.94;8214539;28;21531;-71
2022/04/24 08:18:06;;;;;;;1.88;0.85;;;;;;;11.20;82.85;97650.03;8205732;28;20649;-71
2022/04/24 08:22:07;;;;;;;1.00;0.70;;;;;;;11.17;83.05;97659.69;8210261;28;20549;-71
2022/04/24 08:26:10;;;;;;;0.80;0.80;;;;;;;11.13;83.61;97661.53;8193536;28;20046;-70
2022/04/24 08:30:13;;;;;;;1.95;1.08;;;;;;;11.09;83.54;97664.28;8212608;28;20438;-71
2022/04/24 08:34:14;;;;;;;;;;;;;;;11.06;83.78;97665.22;8216183;28;20046;-71
2022/04/24 08:38:16;;;;;;;1.17;1.08;;;;;;;11.03;83.73;97669.69;8220745;28;19929;-71
2022/04/24 08:42:21;;;;;;;1.73;1.50;;;;;;;11.05;83.94;97667.88;8203305;28;20046;-70
2022/04/24 08:46:23;;;;;;;3.15;1.83;;;;;;;11.10;84.15;97671.16;8197800;28;20728;-71
2022/04/24 08:50:29;;;;;;;;;;;;;;;11.13;84.43;97671.06;8217233;28;20051;-71
2022/04/24 08:54:31;;;;;;;2.08;1.67;;;;;;;11.21;83.93;97674.25;8208508;28;19925;-71
2022/04/24 08:58:33;;;;;;;2.05;1.80;;;;;;;11.27;83.73;97675.78;8212571;28;20077;-71
2022/04/24 09:02:35;;;;;;;3.42;1.92;;;;;;;11.37;83.54;97675.41;8196957;28;20644;-72
2022/04/24 09:06:37;;;;;;;2.53;2.33;;;;;;;11.42;83.01;97676.09;8217583;28;20073;-72
2022/04/24 09:10:55;;;;;;;2.08;1.88;;;;;;;11.50;83.34;97676.69;8207989;28;20070;-72
2022/04/24 09:14:58;;;;;;;1.75;1.50;;;;;;;11.60;82.88;97676.34;8216481;28;20388;-72
2022/04/24 09:18:59;;;;;;;2.53;1.50;;;;;;;11.71;83.70;97671.63;8214631;28;20050;-71
2022/04/24 09:23:04;;;;;;;1.63;1.52;;;;;;;11.79;84.28;97675.66;8176560;28;20145;-70
2022/04/24 09:27:05;;;;;;;1.30;1.20;;;;;;;11.89;84.16;97683.97;8216818;28;20046;-71
2022/04/24 09:31:08;;;;;;;4.40;1.60;;;;;;;11.98;83.73;97688.81;8212608;28;20076;-71
2022/04/24 09:35:09;;;;;;;;;;;;;;;12.13;83.43;97695.19;8212962;28;20051;-72
2022/04/24 09:39:11;;;;;;;2.42;1.00;;;;;;;12.12;81.34;97701.31;8218893;28;19953;-72
2022/04/24 09:43:14;;;;;;;1.30;1.20;;;;;;;12.16;81.24;97694.25;8190712;28;20070;-71
2022/04/24 09:47:19;;;;;;;1.48;1.38;;;;;;;12.33;81.87;97697.03;8197574;28;20056;-71
2022/04/24 09:51:21;;;;;;;1.88;1.65;;;;;;;12.52;82.38;97707.59;8220277;28;20053;-70
2022/04/24 09:55:25;;;;;;;5.47;1.65;;;;;;;12.68;80.72;97700.88;8192570;28;20049;-72
2022/04/24 09:59:27;;;;;;;1.30;1.20;;;;;;;12.83;79.86;97705.47;8217682;28;20042;-71
2022/04/24 10:03:29;;;;;;;1.50;1.40;;;;;;;13.03;77.75;97707.25;8209682;28;20086;-71
2022/04/24 10:07:31;;;;;;;1.52;1.23;;;;;;;13.24;77.20;97711.59;8194670;28;20043;-71
2022/04/24 10:11:33;;;;;;;2.05;1.80;;;;;;;13.38;76.41;97715.38;8197813;28;20066;-71
2022/04/24 10:15:43;;;;;;;3.03;1.43;;;;;;;13.54;75.97;97717.28;8218477;28;20073;-71
2022/04/24 10:19:59;;;;;;;1.80;1.70;;;;;;;13.73;75.40;97725.16;8210934;28;20061;-71
2022/04/24 10:24:08;;;;;;;4.22;1.92;;;;;;;13.96;73.74;97720.66;8210163;28;20138;-71
2022/04/24 10:28:20;;;;;;;1.60;1.50;;;;;;;14.11;72.09;97731.25;8214455;28;20382;-71
2022/04/24 10:32:26;;;;;;;1.80;1.65;;;;;;;14.27;71.20;97734.03;8199002;28;20082;-72
2022/04/24 10:36:28;;;;;;;1.35;1.25;;;;;;;14.47;71.14;97740.97;8211179;28;20047;-72
2022/04/24 10:40:29;;;;;;;4.30;1.70;;;;;;;14.70;71.59;97742.50;8210133;28;20047;-72
2022/04/24 10:44:32;;;;;;;2.22;1.42;;;;;;;14.99;68.67;97733.25;8185829;28;20645;-72
2022/04/24 10:48:34;;;;;;;1.83;1.73;;;;;;;15.12;66.57;97736.97;8196885;28;20051;-72
2022/04/24 10:52:40;;;;;;;2.20;2.00;;;;;;;15.09;64.73;97743.22;8221689;28;20042;-72
2022/04/24 10:56:48;;;;;;;2.25;2.03;;;;;;;15.09;65.12;97744.97;8224353;28;20751;-72
2022/04/24 11:00:50;;;;;;;3.53;1.63;;;;;;;15.09;65.09;97752.81;8204072;28;20078;-72
2022/04/24 11:05:09;;;;;;;2.60;2.40;;;;;;;15.03;64.42;97758.31;8216435;28;20509;-71
2022/04/24 11:09:12;;;;;;;2.03;1.92;;;;;;;14.94;65.28;97762.25;8211709;28;20139;-72
2022/04/24 11:13:17;;;;;;;2.22;2.03;;;;;;;14.83;64.95;97756.69;8199929;28;20090;-72
2022/04/24 11:17:19;;;;;;;3.17;2.20;;;;;;;14.75;64.69;97761.44;8220564;28;20186;-72
2022/04/24 11:21:21;;;;;;;2.28;2.08;;;;;;;14.74;65.46;97772.81;8223273;28;20039;-72
2022/04/24 11:25:25;;;;;;;3.25;2.03;;;;;;;14.73;64.72;97769.34;8198400;28;20046;-72
2022/04/24 11:29:27;;;;;;;2.13;2.03;;;;;;;14.63;64.34;97775.06;8219215;28;20061;-72
2022/04/24 11:33:28;;;;;;;2.40;2.20;;;;;;;14.55;64.09;97774.59;8210349;28;20057;-72
2022/04/24 11:37:29;;;;;;;2.73;2.50;;;;;;;14.45;65.81;97782.81;8221105;28;20627;-72
2022/04/24 11:41:32;;;;;;;3.30;2.67;;;;;;;14.38;65.65;97791.00;8216927;28;20043;-72
2022/04/24 11:50:15;;;;;;;2.10;2.00;;;;;;;14.35;65.37;97793.72;8213446;28;20047;-73
2022/04/24 11:54:38;;;;;;;2.20;2.10;;;;;;;14.57;66.86;97796.25;8214548;28;20059;-73
2022/04/24 11:58:41;;;;;;;7.78;2.22;;;;;;;14.88;65.45;97793.88;8190468;28;20050;-72
2022/04/24 12:02:43;;;;;;;2.60;2.35;;;;;;;15.01;62.56;97800.22;8195486;28;20093;-72
2022/04/24 12:06:45;;;;;;;2.40;2.20;;;;;;;15.10;62.25;97797.19;8212356;28;20054;-72
2022/04/24 12:10:47;;;;;;;2.58;2.17;;;;;;;15.37;62.55;97802.81;8214846;28;20137;-72
2022/04/24 12:14:51;;;;;;;;;;;;;;;15.50;62.04;97813.53;8213313;28;20436;-72
2022/04/24 12:18:57;;;;;;;2.50;2.30;;;;;;;15.68;60.62;97811.81;8220298;28;19926;-72
2022/04/24 12:23:15;;;;;;;2.75;2.55;;;;;;;15.76;60.85;97820.09;8220655;28;20732;-71
2022/04/24 12:27:17;;;;;;;2.88;2.38;;;;;;;15.80;60.43;97824.28;8215276;28;20386;-71
2022/04/24 12:31:26;;;;;;;3.45;2.20;;;;;;;15.74;60.07;97828.97;8210423;28;20061;-70
2022/04/24 12:35:33;;;;;;;2.40;2.20;;;;;;;15.56;59.89;97835.94;8219619;28;20055;-69
2022/04/24 12:39:35;;;;;;;2.35;2.15;;;;;;;15.28;60.08;97842.53;8216217;28;20050;-71
2022/04/24 12:43:36;;;;;;;2.58;2.38;;;;;;;15.05;61.05;97846.22;8219052;28;20660;-72
2022/04/24 12:47:38;;;;;;;2.80;2.60;;;;;;;14.88;63.47;97851.38;8210449;28;20085;-70
2022/04/24 12:51:39;;;;;;;3.97;2.23;;;;;;;14.74;64.04;97851.19;8215840;28;20308;-72
2022/04/24 12:55:41;;;;;;;2.67;2.37;;;;;;;14.56;65.50;97852.03;8218706;28;20546;-71
2022/04/24 12:59:43;;;;;;;6.25;2.67;;;;;;;14.42;66.33;97855.22;8218725;28;20304;-70
2022/04/24 13:03:47;;;;;;;3.17;2.57;;;;;;;14.30;67.54;97859.19;8214749;28;20157;-70
2022/04/24 13:07:49;;;;;;;2.40;2.30;;;;;;;14.19;68.61;97856.22;8187192;28;20051;-70
2022/04/24 13:11:53;;;;;;;3.47;3.17;;;;;;;14.11;70.07;97864.38;8204185;28;20039;-71
2022/04/24 13:20:14;;;;;;;3.10;2.80;;;;;;;13.98;72.80;97870.19;8215143;28;20062;-70
2022/04/24 13:24:35;;;;;;;3.50;3.20;;;;;;;13.94;73.05;97873.84;8216498;28;20065;-71
2022/04/24 13:28:37;;;;;;;5.70;3.30;;;;;;;13.94;73.39;97866.00;8210325;28;20086;-71
2022/04/24 13:32:39;;;;;;;4.95;3.85;;;;;;;14.02;74.30;97869.16;8186819;28;20061;-71
2022/04/24 13:36:40;;;;;;;3.58;3.28;;;;;;;14.18;73.90;97872.78;8179867;28;20457;-71
2022/04/24 13:40:49;;;;;;;3.45;3.25;;;;;;;14.31;72.91;97873.09;8218375;28;20047;-71
2022/04/24 13:44:51;;;;;;;5.80;3.53;;;;;;;14.39;71.12;97876.25;8210995;28;20396;-71
2022/04/24 13:48:52;;;;;;;3.83;3.53;;;;;;;14.46;70.20;97880.31;8210536;28;20061;-71
2022/04/24 13:52:54;;;;;;;4.70;4.30;;;;;;;14.33;69.98;97885.19;8198686;28;20070;-73
2022/04/24 13:56:56;;;;;;;6.65;4.00;;;;;;;14.29;70.35;97890.59;8206739;28;20130;-71
2022/04/24 14:00:59;;;;;;;4.13;3.83;;;;;;;14.26;70.60;97890.75;8204714;28;20524;-71
2022/04/24 14:05:01;;;;;;;5.63;4.13;;;;;;;14.29;69.55;97888.84;8209869;28;20089;-71
2022/04/24 14:09:09;;;;;;;4.97;3.55;;;;;;;14.36;70.34;97886.81;8210798;28;20054;-71
2022/04/24 14:13:10;;;;;;;3.75;3.45;;;;;;;14.46;69.28;97888.13;8218072;28;20080;-71
2022/04/24 14:17:12;;;;;;;4.32;3.95;;;;;;;14.55;68.75;97885.13;8217468;28;20045;-71
2022/04/24 14:21:13;;;;;;;4.37;3.90;;;;;;;14.71;68.98;97893.94;8197943;28;20578;-71
2022/04/24 14:25:20;;;;;;;4.82;3.47;;;;;;;14.90;69.36;97893.13;8214883;28;20058;-71
2022/04/24 14:29:24;;;;;;;3.92;3.42;;;;;;;15.04;67.79;97895.94;8211247;28;20465;-71
2022/04/24 14:33:26;;;;;;;3.65;3.45;;;;;;;15.28;68.64;97894.81;8211803;28;20054;-71
2022/04/24 14:37:27;;;;;;;4.10;3.75;;;;;;;15.52;67.10;97903.25;8183086;28;20081;-72
2022/04/24 14:41:29;;;;;;;3.97;3.60;;;;;;;15.63;66.41;97894.94;8220083;28;20055;-73
2022/04/24 14:58:32;;;;;;;4.57;3.40;;;;;;;15.86;63.43;97915.56;8206149;28;20066;-71
2022/04/24 15:02:34;;;;;;;4.17;3.63;;;;;;;15.91;63.73;97920.56;8221278;28;20173;-73
2022/04/24 15:06:36;;;;;;;3.40;3.03;;;;;;;15.82;62.73;97927.13;8218694;28;20835;-72
2022/04/24 15:10:42;;;;;;;3.47;3.27;;;;;;;15.80;62.44;97928.09;8202986;28;20503;-71
2022/04/24 15:14:43;;;;;;;4.05;3.75;;;;;;;15.82;64.18;97934.13;8219514;28;20054;-71
2022/04/24 15:18:45;;;;;;;4.60;3.70;;;;;;;15.87;63.17;97935.59;8224938;28;20065;-71
2022/04/24 15:22:47;;;;;;;4.07;3.20;;;;;;;15.89;62.28;97938.13;8202482;28;20142;-71
2022/04/24 15:26:49;;;;;;;3.55;3.17;;;;;;;15.92;61.31;97940.59;8222420;28;20633;-71
2022/04/24 15:30:50;;;;;;;3.33;3.13;;;;;;;15.93;61.73;97934.44;8218574;28;20397;-72
2022/04/24 15:34:54;;;;;;;3.42;3.10;;;;;;;15.94;60.15;97938.75;8224156;28;20826;-71
2022/04/24 15:38:56;;;;;;;4.63;3.10;;;;;;;15.89;60.72;97941.59;8220339;28;20046;-72
2022/04/24 15:42:59;;;;;;;3.60;3.30;;;;;;;15.89;61.69;97940.75;8204163;28;20707;-71
2022/04/24 15:47:02;;;;;;;3.08;2.88;;;;;;;15.87;61.14;97938.22;8219457;28;20054;-71
2022/04/24 15:51:04;;;;;;;3.13;2.92;;;;;;;15.76;60.62;97943.09;8225260;28;20051;-71
2022/04/24 15:55:15;;;;;;;3.15;2.95;;;;;;;15.70;60.60;97948.66;8223349;28;20047;-71
2022/04/24 15:59:16;;;;;;;3.70;3.40;;;;;;;15.64;60.05;97944.56;8216566;28;20050;-71
2022/04/24 16:03:18;;;;;;;3.30;3.10;;;;;;;15.71;59.90;97945.09;8208330;28;20062;-72
2022/04/24 16:07:19;;;;;;;3.15;2.92;;;;;;;15.89;59.90;97938.97;8218901;28;20485;-72
2022/04/24 16:11:21;;;;;;;3.22;2.97;;;;;;;16.16;58.97;97947.25;8218249;28;20046;-72
2022/04/24 16:15:23;;;;;;;3.53;3.23;;;;;;;16.56;57.65;97953.09;8198631;28;20073;-71
2022/04/24 16:19:24;;;;;;;2.90;2.70;;;;;;;16.75;58.41;97947.75;8203335;28;20046;-72
2022/04/24 16:23:26;;;;;;;3.75;3.15;;;;;;;16.66;56.71;97943.78;8219583;28;20112;-72
2022/04/24 16:27:28;;;;;;;3.63;3.33;;;;;;;16.50;57.60;97950.75;8215477;28;20047;-72
2022/04/24 16:31:32;;;;;;;5.30;3.10;;;;;;;16.42;58.63;97951.16;8215744;28;20138;-72
2022/04/24 16:35:34;;;;;;;2.72;2.53;;;;;;;16.39;57.98;97950.47;8199361;28;20059;-72
2022/04/24 16:39:36;;;;;;;3.22;2.97;;;;;;;16.32;58.55;97953.38;8215971;28;20113;-72
2022/04/24 16:43:38;;;;;;;3.17;2.97;;;;;;;16.19;56.95;97962.81;8216498;28;20134;-72
2022/04/24 16:47:42;;;;;;;2.75;2.55;;;;;;;16.05;58.79;97969.66;8213863;28;20157;-71
2022/04/24 17:00:24;;;;;;;5.43;3.13;;;;;;;15.68;60.94;97971.44;8204885;28;20047;-72
2022/04/24 17:04:27;;;;;;;2.53;2.42;;;;;;;15.58;59.97;97972.75;8209548;28;20141;-72
2022/04/24 17:08:31;;;;;;;6.97;3.22;;;;;;;15.50;62.42;97974.88;8186225;28;20077;-72
2022/04/24 17:12:32;;;;;;;3.03;2.83;;;;;;;15.33;61.69;97962.59;8214917;28;20055;-72
2022/04/24 17:16:34;;;;;;;3.30;2.85;;;;;;;15.25;62.41;97965.53;8203796;28;20089;-72
2022/04/24 17:20:36;;;;;;;4.07;2.50;;;;;;;15.10;64.07;97976.72;8202390;28;20567;-72
2022/04/24 17:24:38;;;;;;;6.70;4.13;;;;;;;14.87;66.34;97975.13;8208816;28;20074;-72
2022/04/24 17:28:40;;;;;;;4.57;4.20;;;;;;;14.73;66.99;97993.19;8183974;28;20506;-72
2022/04/24 17:32:41;;;;;;;6.47;4.57;;;;;;;14.57;68.90;97992.16;8184155;28;20082;-71
2022/04/24 17:36:44;;;;;;;5.50;4.60;;;;;;;14.43;69.01;97997.94;8208949;28;20415;-72
2022/04/24 17:40:46;;;;;;;4.85;4.32;;;;;;;14.35;70.12;98000.00;8216487;28;20061;-72
2022/04/24 17:44:47;;;;;;;4.63;4.28;;;;;;;14.28;70.34;98011.63;8213845;28;20043;-72
2022/04/24 17:48:49;;;;;;;5.88;4.60;;;;;;;14.20;71.15;98007.56;8206569;28;20057;-71
2022/04/24 17:52:51;;;;;;;5.20;4.80;;;;;;;14.16;71.18;98012.97;8208918;28;20118;-72
2022/04/24 17:56:53;;;;;;;7.38;4.53;;;;;;;14.06;72.40;98022.94;8212814;28;20047;-71
2022/04/24 18:00:56;;;;;;;5.57;4.97;;;;;;;13.95;73.35;98032.09;8204822;28;20129;-71
2022/04/24 18:04:58;;;;;;;5.28;4.80;;;;;;;13.89;73.74;98034.06;8205194;28;20051;-72
2022/04/24 18:09:00;;;;;;;5.05;4.55;;;;;;;13.82;74.03;98043.03;8199378;28;20120;-72
2022/04/24 18:13:02;;;;;;;4.88;4.47;;;;;;;13.72;74.62;98046.91;8207347;28;20051;-72
2022/04/24 18:17:05;;;;;;;5.10;4.70;;;;;;;13.65;75.36;98058.50;8201916;28;20449;-71
2022/04/24 18:21:06;;;;;;;;;;;;;;;13.57;75.73;98058.78;8208908;28;20066;-71
2022/04/24 18:25:08;;;;;;;6.70;4.80;;;;;;;13.49;76.07;98053.00;8204257;28;19989;-72
2022/04/24 18:29:11;;;;;;;5.18;4.45;;;;;;;13.44;76.68;98073.16;8192942;28;20066;-72
2022/04/24 18:33:13;;;;;;;;;;;;;;;13.43;76.92;98075.84;8189862;28;20413;-72
2022/04/24 18:41:35;;;;;;;5.38;4.90;;;;;;;13.33;76.94;98088.38;8210697;28;20069;-71
2022/04/24 18:45:36;;;;;;;4.83;4.23;;;;;;;13.22;77.66;98086.16;8202477;28;20075;-71
2022/04/24 18:49:38;;;;;;;4.70;4.30;;;;;;;13.16;77.49;98082.88;8187818;28;20075;-71
2022/04/24 18:53:39;;;;;;;4.73;4.30;;;;;;;13.09;78.10;98097.88;8214685;28;20158;-71
2022/04/24 18:57:41;;;;;;;5.88;5.28;;;;;;;12.94;78.90;98107.09;8187791;28;20050;-71
2022/04/24 19:01:42;;;;;;;5.78;5.07;;;;;;;12.89;79.44;98110.75;8212502;28;20449;-71
2022/04/24 19:14:28;;;;;;;11.93;5.22;;;;;;;12.66;80.64;98121.94;8215128;28;20047;-72
2022/04/24 19:18:31;;;;;;;7.53;5.50;;;;;;;12.61;80.62;98127.31;8214406;28;20074;-71
2022/04/24 19:22:32;;;;;;;5.53;4.68;;;;;;;12.58;81.01;98132.63;8201594;28;20138;-71
2022/04/24 19:26:34;;;;;;;5.90;5.40;;;;;;;12.57;81.40;98140.50;8223222;28;20133;-71
2022/04/24 19:30:35;;;;;;;6.18;5.57;;;;;;;12.53;81.45;98150.13;8198207;28;20051;-71
2022/04/24 19:34:39;;;;;;;5.87;5.37;;;;;;;12.47;82.46;98160.75;8216964;28;20054;-70
2022/04/24 19:38:41;;;;;;;5.95;5.35;;;;;;;12.49;82.32;98184.13;8217118;28;20070;-71
2022/04/24 19:42:45;;;;;;;6.07;5.47;;;;;;;12.53;81.92;98190.94;8208838;28;20526;-70
2022/04/24 19:46:46;;;;;;;5.80;5.20;;;;;;;12.56;82.63;98196.91;8224539;28;20074;-71